Latest Weather Observations for Mount Crawford

IDS60801

Issued at 8:21 pm CDT Sunday 24 January 2021 (issued every 10 minutes, with the page automatically refreshed every 10 minutes)

About weather observations | Map of weather stations | Latest weather observations for SA | Other Formats
Station Details ID: 023878 Name: MOUNT CRAWFORD AWS Lat: -34.73 Lon: 138.93 Height: 525.0 m
Data from the previous 72 hours. | See also: Recent months at Mount Crawford
Date/Time
CDT
Temp
°C
App
Temp
°C
Dew
Point
°C
Rel
Hum
%
Delta-T
°C
Wind Press
QNH
hPa
Press
MSL
hPa
Rain since
9am
mm
Dir  Spd
km/h
Gust
km/h
Spd
kts
Gust
kts
24/08:00pm 32.2 28.1 2.3 15 15.4 SW 13 20 7 11 1005.1 1002.7 0.0
24/07:30pm 33.4 27.6 2.3 14 16.2 WSW 22 35 12 19 1004.8 1002.4 0.0
24/07:00pm 35.1 29.2 -1.1 10 18.0 WNW 20 43 11 23 1004.4 1002.0 0.0
24/06:30pm 35.9 29.1 -1.9 9 18.7 W 24 32 13 17 1004.3 1001.9 0.0
24/06:00pm 37.2 31.9 -0.9 9 19.3 NW 17 28 9 15 1004.4 1002.0 0.0
24/05:30pm 37.0 31.1 -1.1 9 19.2 NNW 20 30 11 16 1004.6 1002.2 0.0
24/05:18pm 37.6 31.7 -0.6 9 19.4 NW 20 41 11 22 1004.6 1002.2 0.0
24/05:00pm 37.0 31.6 -1.1 9 19.2 WNW 17 35 9 19 1004.8 1002.4 0.0
24/04:30pm 38.6 33.4 0.1 9 20.0 NW 17 30 9 16 1005.2 1002.8 0.0
24/04:00pm 37.4 32.5 -0.8 9 19.4 WNW 15 32 8 17 1005.8 1003.4 0.0
24/03:30pm 37.9 32.2 -0.4 9 19.6 NW 19 32 10 17 1006.0 1003.6 0.0
24/03:00pm 37.7 31.2 -2.2 8 19.9 WNW 22 35 12 19 1006.2 1003.8 0.0
24/02:50pm 37.5 29.7 -0.7 9 19.4 NW 30 48 16 26 1006.4 1004.0 0.0
24/02:30pm 38.0 32.2 -0.3 9 19.7 NNW 20 39 11 21 1006.5 1004.1 0.0
24/02:00pm 37.9 31.8 -2.0 8 19.9 NW 20 33 11 18 1007.0 1004.6 0.0
24/01:30pm 37.4 31.3 -2.4 8 19.7 WNW 20 35 11 19 1007.3 1004.9 0.0
24/01:00pm 37.4 30.0 -0.8 9 19.4 NNW 28 52 15 28 1007.7 1005.3 0.0
24/12:30pm 38.5 31.0 -1.6 8 20.2 NW 28 46 15 25 1008.0 1005.6 0.0
24/12:17pm 38.3 30.4 -1.7 8 20.1 N 30 54 16 29 1008.2 1005.8 0.0
24/12:15pm 37.6 30.0 -2.2 8 19.8 N 28 54 15 29 1007.9 1005.5 0.0
24/12:00pm 36.8 29.9 -2.8 8 19.4 N 24 33 13 18 1008.4 1006.1 0.0
24/11:30am 34.7 26.3 -2.8 9 18.1 N 32 41 17 22 1008.8 1006.5 0.0
24/11:00am 34.7 27.8 -2.8 9 18.1 N 24 39 13 21 1009.1 1006.7 0.0
24/10:30am 33.4 26.4 -3.7 9 17.5 NNE 24 35 13 19 1009.2 1006.8 0.0
24/10:00am 32.1 23.4 -4.7 9 16.9 NE 32 43 17 23 1009.3 1006.9 0.0
24/09:30am 31.9 23.6 -4.9 9 16.8 NE 30 43 16 23 1009.5 1007.1 0.0
24/09:00am 31.2 22.4 -4.0 10 16.3 NE 33 46 18 25 1009.5 1007.1 0.0
24/08:30am 30.2 22.1 -0.2 14 14.9 NE 32 46 17 25 1009.5 1007.1 0.0
24/08:00am 28.4 20.2 2.6 19 13.1 NE 35 48 19 26 1009.3 1006.9 0.0
24/07:30am 27.2 18.3 3.0 21 12.3 NE 39 50 21 27 1009.1 1006.7 0.0
24/07:00am 26.7 18.1 2.6 21 12.1 NE 37 46 20 25 1008.9 1006.6 0.0
24/06:30am 26.2 17.6 2.8 22 11.8 NE 37 48 20 26 1008.9 1006.6 0.0
24/06:00am 26.1 17.6 3.4 23 11.5 ENE 37 50 20 27 1008.7 1006.4 0.0
24/05:30am 25.7 17.7 3.6 24 11.2 ENE 35 44 19 24 1008.5 1006.2 0.0
24/05:00am 25.5 17.5 4.0 25 11.0 ENE 35 48 19 26 1008.4 1006.1 0.0
24/04:30am 25.7 17.8 4.2 25 11.0 ENE 35 46 19 25 1008.4 1006.1 0.0
24/04:00am 25.9 18.4 4.4 25 11.1 ENE 33 44 18 24 1008.6 1006.3 0.0
24/03:30am 26.0 17.8 5.0 26 11.0 ENE 37 46 20 25 1008.6 1006.3 0.0
24/03:00am 25.7 18.4 5.3 27 10.7 ENE 33 44 18 24 1008.9 1006.6 0.0
24/02:30am 25.3 19.0 5.5 28 10.4 ENE 28 35 15 19 1009.4 1007.0 0.0
24/02:00am 25.3 19.3 5.5 28 10.4 E 26 33 14 18 1009.7 1007.3 0.0
24/01:30am 25.5 20.0 5.7 28 10.4 E 24 33 13 18 1010.0 1007.6 0.0
24/01:00am 25.5 19.6 5.7 28 10.4 E 26 33 14 18 1010.4 1008.1 0.0
24/12:30am 25.5 19.3 6.2 29 10.2 E 28 35 15 19 1010.6 1008.3 0.0
24/12:00am 25.4 19.6 6.1 29 10.2 ESE 26 32 14 17 1010.8 1008.5 0.0
 
Date/Time
CDT
Temp
°C
App
Temp
°C
Dew
Point
°C
Rel
Hum
%
Delta-T
°C
Wind Press
QNH
hPa
Press
MSL
hPa
Rain since
9am
mm
Dir  Spd
km/h
Gust
km/h
Spd
kts
Gust
kts
23/11:30pm 26.0 19.8 6.1 28 10.6 ESE 28 35 15 19 1010.9 1008.6 0.0
23/11:00pm 26.7 19.7 6.2 27 10.9 ESE 32 39 17 21 1011.1 1008.7 0.0
23/10:30pm 26.6 19.6 6.1 27 10.9 ESE 32 43 17 23 1010.9 1008.6 0.0
23/10:00pm 26.8 20.6 6.2 27 11.0 ESE 28 39 15 21 1011.2 1008.8 0.0
23/09:30pm 26.5 21.5 6.5 28 10.7 ESE 22 28 12 15 1011.3 1008.9 0.0
23/09:00pm 27.6 22.2 6.4 26 11.4 SSE 24 32 13 17 1011.1 1008.7 0.0
23/08:30pm 28.6 23.9 7.8 27 11.5 SE 22 32 12 17 1010.8 1008.5 0.0
23/08:00pm 29.9 24.8 5.9 22 13.0 SSE 22 33 12 18 1010.5 1008.2 0.0
23/07:30pm 31.2 24.7 4.9 19 14.1 S 28 39 15 21 1010.3 1008.0 0.0
23/07:00pm 33.6 28.4 3.4 15 16.0 S 20 35 11 19 1009.9 1007.5 0.0
23/06:30pm 35.1 30.3 0.2 11 17.7 SSW 15 26 8 14 1009.8 1007.4 0.0
23/06:00pm 35.4 30.1 -0.8 10 18.1 SW 17 28 9 15 1009.6 1007.2 0.0
23/05:30pm 36.4 31.0 -1.5 9 18.9 WSW 17 30 9 16 1009.6 1007.2 0.0
23/05:00pm 36.1 30.7 -1.7 9 18.7 SW 17 33 9 18 1009.6 1007.2 0.0
23/04:30pm 35.4 30.5 -3.8 8 18.7 SSW 13 22 7 12 1009.9 1007.5 0.0
23/04:00pm 35.0 30.8 -4.1 8 18.5 NW 9 20 5 11 1010.2 1007.9 0.0
23/03:30pm 35.4 29.7 -3.8 8 18.7 NNE 17 24 9 13 1010.5 1008.2 0.0
23/03:00pm 34.1 28.8 -3.2 9 17.8 ENE 15 24 8 13 1010.8 1008.5 0.0
23/02:30pm 34.3 29.6 -4.6 8 18.2 NW 11 24 6 13 1011.2 1008.8 0.0
23/02:00pm 34.6 29.4 -2.9 9 18.0 WNW 15 30 8 16 1011.6 1009.2 0.0
23/01:30pm 34.9 30.1 -2.6 9 18.2 NW 13 32 7 17 1011.9 1009.6 0.0
23/01:00pm 33.2 28.0 -2.5 10 17.1 N 15 26 8 14 1012.1 1009.8 0.0
23/12:30pm 32.7 27.3 -4.3 9 17.2 NNE 15 24 8 13 1012.3 1010.0 0.0
23/12:00pm 33.1 28.5 -1.3 11 16.8 NNE 13 22 7 12 1012.5 1010.2 0.0
23/11:30am 31.1 26.2 -0.5 13 15.5 NNE 15 26 8 14 1012.6 1010.3 0.0
23/11:00am 29.7 24.2 0.3 15 14.4 NE 19 26 10 14 1012.7 1010.4 0.0
23/10:30am 28.9 23.3 -0.3 15 14.1 NE 19 28 10 15 1012.8 1010.5 0.0
23/10:00am 27.3 21.4 -2.5 14 13.7 NE 19 24 10 13 1012.9 1010.6 0.0
23/09:30am 25.6 19.4 -4.8 13 13.2 ENE 19 28 10 15 1012.8 1010.5 0.0
23/09:00am 24.6 18.4 -9.0 10 13.4 ENE 17 20 9 11 1012.9 1010.6 0.0
23/08:30am 23.2 16.2 -11.4 9 13.0 ENE 20 32 11 17 1012.6 1010.3 0.0
23/08:00am 22.5 15.6 -13.4 8 12.9 E 19 26 10 14 1012.6 1010.3 0.0
23/07:30am 22.1 14.6 -13.7 8 12.7 ENE 22 30 12 16 1012.5 1010.2 0.0
23/07:00am 21.4 13.9 -14.2 8 12.4 ENE 22 28 12 15 1012.2 1009.9 0.0
23/06:30am 20.6 13.4 -16.4 7 12.2 E 20 24 11 13 1012.0 1009.7 0.0
23/06:00am 20.5 13.2 -18.3 6 12.4 E 20 24 11 13 1011.9 1009.6 0.0
23/05:30am 18.9 11.8 -13.3 10 11.1 E 20 24 11 13 1011.6 1009.2 0.0
23/05:00am 18.5 11.6 -10.4 13 10.5 E 20 22 11 12 1011.5 1009.1 0.0
23/04:30am 18.2 11.6 -8.8 15 10.1 E 19 24 10 13 1011.4 1009.0 0.0
23/04:00am 17.9 10.9 -6.7 18 9.6 ESE 22 24 12 13 1011.4 1009.0 0.0
23/03:30am 18.0 10.6 -7.4 17 9.8 ESE 24 28 13 15 1011.5 1009.1 0.0
23/03:00am 17.6 10.4 -5.6 20 9.2 ESE 24 28 13 15 1011.6 1009.2 0.0
23/02:30am 17.3 10.6 -4.0 23 8.7 ESE 22 30 12 16 1011.8 1009.5 0.0
23/02:00am 17.4 10.7 -3.9 23 8.7 ESE 22 28 12 15 1012.1 1009.8 0.0
23/01:30am 18.5 11.7 -5.5 19 9.6 ESE 22 28 12 15 1012.2 1009.9 0.0
23/01:00am 18.4 11.7 -4.3 21 9.3 ESE 22 26 12 14 1012.3 1010.0 0.0
23/12:30am 19.3 12.4 -6.3 17 10.2 SE 22 30 12 16 1012.4 1010.1 0.0
23/12:00am 18.8 12.1 -4.0 21 9.5 SE 22 28 12 15 1012.6 1010.3 0.0
 
Date/Time
CDT
Temp
°C
App
Temp
°C
Dew
Point
°C
Rel
Hum
%
Delta-T
°C
Wind Press
QNH
hPa
Press
MSL
hPa
Rain since
9am
mm
Dir  Spd
km/h
Gust
km/h
Spd
kts
Gust
kts
22/11:30pm 17.8 12.3 1.7 34 7.4 ESE 20 24 11 13 1012.8 1010.5 0.0
22/11:00pm 18.7 12.6 0.3 29 8.3 SE 22 30 12 16 1013.1 1010.7 0.0
22/10:30pm 19.3 13.0 -1.2 25 9.0 SE 22 30 12 16 1013.1 1010.7 0.0
22/10:00pm 20.0 12.8 -1.7 23 9.5 SSE 26 32 14 17 1012.8 1010.5 0.0
22/09:30pm 21.6 13.5 -7.0 14 11.5 SSE 28 35 15 19 1012.7 1010.4 0.0
22/09:00pm 21.5 14.9 -0.5 23 10.0 SSE 24 32 13 17 1012.6 1010.3 0.0
22/08:30pm 22.0 17.6 5.0 33 8.6 SE 17 20 9 11 1012.6 1010.3 0.0
22/08:00pm 23.2 19.5 6.1 33 8.9 SE 15 17 8 9 1012.5 1010.2 0.0
22/07:30pm 24.4 19.3 6.2 31 9.6 SSE 22 28 12 15 1012.1 1009.8 0.0
22/07:00pm 25.9 21.5 6.5 29 10.4 SSE 19 24 10 13 1011.9 1009.6 0.0
22/06:30pm 27.5 23.4 6.3 26 11.4 SSE 17 24 9 13 1011.8 1009.5 0.0
22/06:00pm 29.1 24.9 5.9 23 12.5 SE 17 26 9 14 1011.6 1009.2 0.0
22/05:30pm 30.3 27.1 4.9 20 13.5 SW 11 20 6 11 1011.6 1009.2 0.0
22/05:00pm 30.7 25.4 -0.8 13 15.3 SW 17 30 9 16 1011.7 1009.3 0.0
22/04:30pm 31.3 25.7 -2.6 11 16.0 W 17 26 9 14 1011.7 1009.3 0.0
22/04:00pm 32.1 26.3 -4.7 9 16.9 W 17 26 9 14 1011.8 1009.5 0.0
22/03:30pm 30.9 25.8 -5.6 9 16.4 W 13 22 7 12 1011.9 1009.6 0.0
22/03:00pm 30.7 25.5 -5.8 9 16.3 W 13 22 7 12 1012.2 1009.9 0.0
22/02:30pm 30.5 25.1 -4.5 10 15.9 WSW 15 28 8 15 1012.3 1010.0 0.0
22/02:00pm 30.7 25.2 -5.8 9 16.3 WSW 15 28 8 15 1012.4 1010.1 0.0
22/01:30pm 30.9 26.7 -4.2 10 16.1 W 9 19 5 10 1012.6 1010.3 0.0
22/01:00pm 29.3 24.0 -6.8 9 15.6 WNW 13 26 7 14 1012.8 1010.5 0.0
22/12:30pm 29.1 23.4 -7.0 9 15.6 WSW 15 22 8 12 1013.1 1010.7 0.0
22/12:00pm 28.5 23.6 -3.6 12 14.6 W 13 20 7 11 1013.1 1010.7 0.0
22/11:30am 27.1 21.4 -3.7 13 13.8 W 17 22 9 12 1013.3 1010.9 0.0
22/11:00am 26.6 22.2 0.4 18 12.6 W 13 19 7 10 1013.5 1011.2 0.0
22/10:30am 25.6 21.3 1.0 20 11.9 W 13 20 7 11 1013.4 1011.0 0.0
22/10:00am 24.7 20.4 0.9 21 11.4 W 13 19 7 10 1013.3 1010.9 0.0
22/09:30am 23.9 20.4 1.5 23 10.8 W 9 13 5 7 1013.2 1010.8 0.0
22/09:00am 23.1 19.7 2.0 25 10.2 WSW 9 13 5 7 1013.3 1010.9 0.0
22/08:30am 22.3 19.3 1.9 26 9.8 WSW 7 11 4 6 1013.1 1010.7 0.0
22/08:00am 21.7 18.4 2.4 28 9.3 SW 9 11 5 6 1012.9 1010.6 0.0
22/07:30am 21.1 17.7 1.9 28 9.1 WSW 9 13 5 7 1012.6 1010.3 0.0
22/07:00am 20.9 17.8 1.2 27 9.2 WSW 7 9 4 5 1012.3 1010.0 0.0
22/06:30am 20.9 17.4 1.2 27 9.2 WSW 9 13 5 7 1012.2 1009.9 0.0
22/06:00am 20.1 16.5 0.5 27 9.0 SE 9 13 5 7 1011.9 1009.6 0.0
22/05:30am 20.0 15.3 -5.0 18 10.3 SE 11 13 6 7 1011.6 1009.2 0.0
22/05:00am 19.9 14.5 -8.4 14 10.9 SE 13 15 7 8 1011.4 1009.0 0.0
22/04:30am 19.8 14.4 -4.5 19 10.1 SE 15 19 8 10 1011.3 1008.9 0.0
22/04:00am 19.9 13.7 -8.4 14 10.9 SE 17 20 9 11 1011.3 1008.9 0.0
22/03:30am 19.9 13.4 -8.4 14 10.9 SE 19 22 10 12 1011.2 1008.8 0.0
22/03:00am 19.5 13.0 -7.8 15 10.6 SE 19 26 10 14 1011.4 1009.0 0.0
22/02:30am 19.8 12.5 -5.9 17 10.4 SSE 24 32 13 17 1011.4 1009.0 0.0
22/02:00am 19.2 12.3 -5.7 18 10.0 SE 22 28 12 15 1011.4 1009.0 0.0
22/01:30am 17.7 11.3 -1.5 27 8.3 SE 22 30 12 16 1011.7 1009.3 0.0
22/01:00am 17.8 11.4 -1.9 26 8.5 SE 22 28 12 15 1012.0 1009.7 0.0
22/12:30am 19.1 11.5 -1.9 24 9.1 SSE 28 35 15 19 1012.2 1009.9 0.0
22/12:00am 18.7 11.7 -0.7 27 8.6 SSE 26 37 14 20 1012.5 1010.2 0.0
 
Date/Time
CDT
Temp
°C
App
Temp
°C
Dew
Point
°C
Rel
Hum
%
Delta-T
°C
Wind Press
QNH
hPa
Press
MSL
hPa
Rain since
9am
mm
Dir  Spd
km/h
Gust
km/h
Spd
kts
Gust
kts
21/11:30pm 19.6 12.5 -1.5 24 9.3 SSE 26 33 14 18 1012.5 1010.2 0.0
21/11:00pm 19.4 12.6 0.9 29 8.5 SSE 26 35 14 19 1012.6 1010.3 0.0
21/10:30pm 19.0 12.7 1.5 31 8.1 SSE 24 32 13 17 1012.8 1010.5 0.0
21/10:00pm 19.4 13.2 1.9 31 8.2 SSE 24 32 13 17 1012.7 1010.4 0.0
21/09:30pm 20.0 14.0 1.0 28 8.8 SSE 22 30 12 16 1012.4 1010.1 0.0
21/09:00pm 20.8 15.5 2.1 29 8.9 SE 19 24 10 13 1012.4 1010.1 0.0
21/08:30pm 22.6 17.3 3.2 28 9.6 SSE 20 26 11 14 1012.3 1010.0 0.0

Other formats

Comma delimited format used in spreadsheet applications
http://www.bom.gov.au/fwo/IDS60801/IDS60801.94678.axf

JavaScript Object Notation format (JSON) in row-major order
http://www.bom.gov.au/fwo/IDS60801/IDS60801.94678.json

Data quality

Most of these data are generated automatically and are frequently updated. Quality checks on data are not normally performed. It is possible for incorrect values to appear. Refer to information at About Latest Weather Observations and please check the disclaimer before using these data.